Time;durP1;ratioP1;P1;durP2;ratioP2;P2;SDS_P1;SDS_P2;PMS_P1;PMS_P2;Temp;Humidity;BMP_temperature;BMP_pressure;BME280_temperature;BME280_humidity;BME280_pressure;Samples;Min_cycle;Max_cycle;Signal;HPM_P1;HPM_P2
2023/10/13 00:01:29;;;;;;;8.35;4.50;;;17.80;99.90;;;18.05;100.00;100775.16;5215131;28;20081;-51
2023/10/13 00:04:05;;;;;;;5.72;3.33;;;17.80;99.90;;;18.05;100.00;100769.88;5217117;28;20077;-50
2023/10/13 00:06:38;;;;;;;7.50;3.60;;;17.80;99.90;;;18.05;100.00;100769.88;5214870;28;20065;-50
2023/10/13 00:09:14;;;;;;;7.72;4.15;;;17.80;99.90;;;18.06;100.00;100776.94;5213564;28;20065;-51
2023/10/13 00:11:47;;;;;;;6.00;3.28;;;17.80;99.90;;;18.06;100.00;100774.31;5214325;28;20056;-50
2023/10/13 00:14:22;;;;;;;6.47;3.33;;;17.80;99.90;;;18.08;100.00;100774.31;5217141;28;20046;-51
2023/10/13 00:17:10;;;;;;;6.10;3.50;;;17.80;99.90;;;18.08;100.00;100775.19;5205799;28;20082;-51
2023/10/13 00:19:45;;;;;;;6.25;3.95;;;17.80;99.90;;;18.09;100.00;100771.66;5212379;28;20423;-52
2023/10/13 00:22:19;;;;;;;5.80;3.60;;;17.80;99.90;;;18.11;100.00;100769.03;5212367;28;20048;-50
2023/10/13 00:25:03;;;;;;;7.13;3.65;;;17.80;99.90;;;18.09;100.00;100760.22;5224026;28;20127;-51
2023/10/13 00:27:40;;;;;;;7.35;3.47;;;17.80;99.90;;;18.10;100.00;100772.53;5212038;28;20048;-52
2023/10/13 00:30:23;;;;;;;5.93;3.20;;;17.80;99.90;;;18.12;100.00;100769.03;5210443;28;20407;-50
2023/10/13 00:32:56;;;;;;;6.32;3.47;;;17.80;99.90;;;18.12;100.00;100765.50;5213749;28;20053;-50
2023/10/13 00:35:35;;;;;;;7.30;3.67;;;17.80;99.90;;;18.12;100.00;100758.47;5222748;28;20436;-51
2023/10/13 00:38:12;;;;;;;6.65;3.70;;;17.80;99.90;;;18.12;100.00;100749.69;5214943;28;20087;-50
2023/10/13 00:40:51;;;;;;;8.07;4.40;;;17.90;99.90;;;18.12;100.00;100749.69;5208130;28;20414;-51
2023/10/13 00:43:34;;;;;;;7.22;3.58;;;17.80;99.90;;;18.13;100.00;100744.44;5216204;28;20132;-50
2023/10/13 00:46:07;;;;;;;6.40;3.58;;;17.90;99.90;;;18.13;100.00;100739.16;5214969;28;20060;-51
2023/10/13 00:48:51;;;;;;;6.03;3.70;;;17.80;99.90;;;18.13;100.00;100738.28;5206854;28;20480;-51
2023/10/13 00:51:34;;;;;;;5.43;3.33;;;17.90;99.90;;;18.13;100.00;100731.25;5215025;28;20377;-52
2023/10/13 00:54:10;;;;;;;5.88;3.63;;;17.90;99.90;;;18.12;100.00;100729.44;5211744;28;20053;-51
2023/10/13 00:56:48;;;;;;;6.78;3.67;;;17.90;99.90;;;18.14;100.00;100726.84;5212380;28;20048;-50
2023/10/13 00:59:23;;;;;;;6.82;3.60;;;17.90;99.90;;;18.15;100.00;100718.03;5214163;28;20123;-51
2023/10/13 01:01:57;;;;;;;6.38;3.60;;;17.90;99.90;;;18.15;100.00;100716.28;5228189;28;20056;-51
2023/10/13 01:04:31;;;;;;;5.38;3.25;;;17.90;99.90;;;18.14;100.00;100714.53;5214469;28;20045;-50
2023/10/13 01:07:04;;;;;;;6.63;3.70;;;17.90;99.90;;;18.15;100.00;100713.66;5213344;28;20045;-50
2023/10/13 01:09:42;;;;;;;6.45;3.60;;;17.90;99.90;;;18.14;100.00;100706.63;5202334;28;20377;-51
2023/10/13 01:12:15;;;;;;;6.28;3.58;;;17.90;99.90;;;18.14;100.00;100701.34;5199569;28;20041;-50
2023/10/13 01:14:48;;;;;;;6.05;3.70;;;17.90;99.90;;;18.12;100.00;100700.44;5197158;28;20045;-50
2023/10/13 01:17:23;;;;;;;6.15;3.70;;;17.90;99.90;;;18.11;100.00;100696.03;5201909;28;20050;-50
2023/10/13 01:19:58;;;;;;;7.38;3.63;;;17.90;99.90;;;18.12;100.00;100697.78;5200715;28;20496;-52
2023/10/13 01:22:31;;;;;;;6.22;3.55;;;17.90;99.90;;;18.11;100.00;100690.75;5199566;28;20041;-51
2023/10/13 01:25:12;;;;;;;5.05;3.42;;;17.90;99.90;;;18.10;100.00;100691.66;5202374;28;20041;-51
2023/10/13 01:27:48;;;;;;;7.03;4.00;;;17.90;99.90;;;18.09;100.00;100687.25;5196093;28;20552;-51
2023/10/13 01:30:24;;;;;;;6.72;3.85;;;17.90;99.90;;;18.09;100.00;100681.97;5201924;28;20605;-50
2023/10/13 01:33:00;;;;;;;6.05;3.72;;;17.90;99.90;;;18.09;100.00;100676.69;5197139;28;20053;-50
2023/10/13 01:35:36;;;;;;;8.70;4.22;;;17.80;99.90;;;18.09;100.00;100676.69;5199896;28;20144;-51
2023/10/13 01:38:08;;;;;;;6.18;3.92;;;17.90;99.90;;;18.09;100.00;100671.44;5197422;28;20136;-51
2023/10/13 01:40:42;;;;;;;6.85;3.55;;;17.80;99.90;;;18.09;100.00;100675.81;5197394;28;20045;-51
2023/10/13 01:43:14;;;;;;;;;;;17.80;99.90;;;18.07;100.00;100675.81;5181595;28;20504;-51
2023/10/13 01:45:49;;;;;;;7.47;4.03;;;17.80;99.90;;;18.06;100.00;100671.44;5212706;28;19921;-51
2023/10/13 01:48:21;;;;;;;9.05;4.35;;;17.80;99.90;;;18.06;100.00;100670.53;5203962;28;20049;-50
2023/10/13 01:51:00;;;;;;;8.55;4.43;;;17.80;99.90;;;18.06;100.00;100665.25;5214390;28;20042;-53
2023/10/13 01:53:31;;;;;;;7.30;3.45;;;17.80;99.90;;;18.06;100.00;100659.97;5198491;28;20443;-51
2023/10/13 01:56:11;;;;;;;6.10;3.85;;;17.80;99.90;;;18.08;100.00;100667.03;5199845;28;20041;-51
2023/10/13 01:58:42;;;;;;;7.20;4.53;;;17.80;99.90;;;18.07;100.00;100657.38;5197311;28;20456;-50
2023/10/13 02:01:26;;;;;;;7.90;4.43;;;17.80;99.90;;;18.08;100.00;100659.13;5197025;28;20119;-51
2023/10/13 02:04:02;;;;;;;6.72;3.88;;;17.80;99.90;;;18.07;100.00;100660.00;5197027;28;20154;-50
2023/10/13 02:06:37;;;;;;;6.40;4.05;;;17.80;99.90;;;18.07;100.00;100653.84;5202640;28;20508;-51
2023/10/13 02:09:14;;;;;;;7.38;4.30;;;17.80;99.90;;;18.08;100.00;100642.41;5196965;28;20064;-51
2023/10/13 02:11:47;;;;;;;8.82;4.05;;;17.80;99.90;;;18.08;100.00;100638.00;5199687;28;20049;-49
2023/10/13 02:14:22;;;;;;;9.05;4.88;;;17.80;99.90;;;18.08;100.00;100647.69;5200611;28;20048;-51
2023/10/13 02:17:12;;;;;;;9.13;4.53;;;17.80;99.90;;;18.07;100.00;100646.81;5194231;28;20045;-52
2023/10/13 02:19:45;;;;;;;8.05;4.20;;;17.80;99.90;;;18.07;100.00;100631.00;5195865;28;20033;-52
2023/10/13 02:22:25;;;;;;;8.85;4.38;;;17.80;99.90;;;18.06;100.00;100631.88;5195264;28;20045;-52
2023/10/13 02:25:01;;;;;;;7.72;4.35;;;17.80;99.90;;;18.03;100.00;100626.56;5194617;28;20081;-51
2023/10/13 02:27:40;;;;;;;9.32;4.30;;;17.80;99.90;;;18.02;100.00;100631.84;5190334;28;20048;-52
2023/10/13 02:30:14;;;;;;;7.70;4.32;;;17.80;99.90;;;17.99;100.00;100622.16;5215981;28;20235;-50
2023/10/13 02:32:46;;;;;;;6.53;3.90;;;17.80;99.90;;;17.99;100.00;100616.88;5198295;28;20075;-51
2023/10/13 02:35:18;;;;;;;8.10;3.92;;;17.80;99.90;;;17.98;100.00;100608.97;5199421;28;20049;-52
2023/10/13 02:37:55;;;;;;;6.85;3.85;;;17.80;99.90;;;17.98;100.00;100607.22;5189242;28;20042;-52
2023/10/13 02:40:28;;;;;;;9.02;4.45;;;17.70;99.90;;;17.98;100.00;100604.59;5198639;28;20054;-50
2023/10/13 02:43:01;;;;;;;8.63;4.22;;;17.70;99.90;;;17.98;100.00;100593.16;5198096;28;20429;-52
2023/10/13 02:45:36;;;;;;;6.85;3.97;;;17.70;99.90;;;17.97;100.00;100591.41;5192682;28;20265;-51
2023/10/13 02:48:12;;;;;;;6.95;3.72;;;17.70;99.90;;;17.95;100.00;100596.69;5213201;28;20096;-51
2023/10/13 02:50:45;;;;;;;8.10;4.00;;;17.70;99.90;;;17.96;100.00;100594.91;5194506;28;20064;-51
2023/10/13 02:53:18;;;;;;;6.03;3.45;;;17.70;99.90;;;17.96;100.00;100584.38;5204919;28;20416;-51
2023/10/13 02:55:56;;;;;;;7.53;4.00;;;17.70;99.90;;;17.96;100.00;100581.72;5205209;28;20505;-52
2023/10/13 02:58:38;;;;;;;8.05;4.03;;;17.70;99.90;;;17.98;100.00;100583.47;5199805;28;20492;-51
2023/10/13 03:01:16;;;;;;;8.05;4.50;;;17.70;99.90;;;17.98;100.00;100578.22;5207626;28;20136;-50
2023/10/13 03:03:53;;;;;;;7.05;4.35;;;17.70;99.90;;;17.98;100.00;100578.22;5194556;28;20545;-50
2023/10/13 03:06:32;;;;;;;8.48;4.15;;;17.70;99.90;;;17.97;100.00;100568.53;5189590;28;20045;-51
2023/10/13 03:09:17;;;;;;;6.13;3.97;;;17.70;99.90;;;17.98;100.00;100566.78;5205300;28;20057;-52
2023/10/13 03:11:49;;;;;;;9.23;4.25;;;17.70;99.90;;;17.98;100.00;100550.97;5192418;28;20037;-51
2023/10/13 03:14:30;;;;;;;8.40;4.32;;;17.70;99.90;;;17.98;100.00;100557.09;5198381;28;20065;-51
2023/10/13 03:17:05;;;;;;;8.57;4.57;;;17.70;99.90;;;17.99;100.00;100556.22;5206902;28;20137;-51
2023/10/13 03:19:39;;;;;;;9.38;4.53;;;17.80;99.90;;;18.00;100.00;100551.88;5196001;28;20050;-51
2023/10/13 03:22:12;;;;;;;9.35;4.30;;;17.80;99.90;;;17.99;100.00;100548.31;5210224;28;20087;-50
2023/10/13 03:24:46;;;;;;;9.30;4.70;;;17.80;99.90;;;17.99;100.00;100531.63;5198533;28;20045;-51
2023/10/13 03:27:23;;;;;;;8.30;4.82;;;17.70;99.90;;;17.97;100.00;100534.25;5198825;28;20263;-50
2023/10/13 03:30:00;;;;;;;7.90;4.40;;;17.80;99.90;;;17.97;100.00;100528.09;5209590;28;20057;-50
2023/10/13 03:32:34;;;;;;;7.75;4.30;;;17.80;99.90;;;17.97;100.00;100529.00;5198391;28;20045;-51
2023/10/13 03:35:12;;;;;;;9.35;4.85;;;17.70;99.90;;;17.98;100.00;100532.50;5195757;28;20595;-51
2023/10/13 03:37:45;;;;;;;8.70;4.47;;;17.70;99.90;;;17.98;100.00;100525.47;5198634;28;20061;-50
2023/10/13 03:43:06;;;;;;;7.60;4.40;;;17.80;99.90;;;18.00;100.00;100513.19;5198618;28;20183;-50
2023/10/13 03:45:42;;;;;;;11.68;4.70;;;17.80;99.90;;;18.02;100.00;100505.25;5214462;28;20606;-51
2023/10/13 03:48:28;;;;;;;8.80;4.57;;;17.80;99.90;;;18.02;100.00;100500.88;5209422;28;20397;-51
2023/10/13 03:51:06;;;;;;;9.40;4.25;;;17.80;99.90;;;18.04;100.00;100499.09;5192418;28;20077;-51
2023/10/13 03:53:52;;;;;;;8.70;4.57;;;17.80;99.90;;;18.05;100.00;100500.84;5192189;28;20524;-50
2023/10/13 03:56:27;;;;;;;8.00;4.93;;;17.80;99.90;;;18.04;100.00;100483.28;5198705;28;20439;-50
2023/10/13 03:59:05;;;;;;;10.45;4.97;;;17.80;99.90;;;18.04;100.00;100471.84;5195632;28;20132;-52
2023/10/13 04:01:46;;;;;;;7.90;4.22;;;17.80;99.90;;;18.04;100.00;100483.28;5193687;28;20066;-50
2023/10/13 04:04:34;;;;;;;11.18;5.00;;;17.80;99.90;;;18.06;100.00;100476.25;5197487;28;20050;-51
2023/10/13 04:07:39;;;;;;;7.93;4.40;;;17.80;99.90;;;18.06;100.00;100468.34;5202937;28;20126;-50
2023/10/13 04:16:14;;;;;;;8.75;4.40;;;17.80;99.90;;;18.07;100.00;100462.19;5184543;28;20046;-51
2023/10/13 04:19:07;;;;;;;6.30;4.40;;;17.80;99.90;;;18.09;100.00;100460.41;5196817;28;20100;-51
2023/10/13 04:21:55;;;;;;;8.57;4.80;;;17.90;99.90;;;18.11;100.00;100463.91;5191432;28;20053;-51
2023/10/13 04:27:53;;;;;;;8.43;4.20;;;17.90;99.90;;;18.12;100.00;100465.66;5158557;28;20370;-52
2023/10/13 04:30:27;;;;;;;7.18;4.40;;;17.90;99.90;;;18.12;100.00;100470.94;5189662;28;20076;-52
2023/10/13 04:33:35;;;;;;;7.10;3.85;;;17.90;99.90;;;18.14;100.00;100463.06;5195584;28;20100;-50
2023/10/13 04:36:13;;;;;;;5.43;3.80;;;17.90;99.90;;;18.16;100.00;100459.53;5206561;28;20079;-50
2023/10/13 04:41:41;;;;;;;7.20;4.28;;;18.00;99.90;;;18.18;100.00;100449.84;5184776;28;20046;-50
2023/10/13 04:47:09;;;;;;;7.47;4.22;;;17.90;99.90;;;18.22;100.00;100447.22;5197334;28;20046;-50
2023/10/13 04:49:51;;;;;;;7.07;4.32;;;17.90;99.90;;;18.22;100.00;100439.28;5201604;28;20049;-51
2023/10/13 04:52:50;;;;;;;7.70;4.20;;;17.90;99.90;;;18.22;100.00;100441.94;5201735;28;20136;-52
2023/10/13 04:55:43;;;;;;;9.52;4.63;;;18.00;99.90;;;18.24;100.00;100434.88;5199613;28;20419;-50
2023/10/13 04:58:35;;;;;;;8.13;4.55;;;18.00;99.90;;;18.24;100.00;100429.59;5198965;28;20444;-52
2023/10/13 05:01:39;;;;;;;8.07;5.03;;;18.00;99.90;;;18.25;100.00;100423.44;5196158;28;20049;-51
2023/10/13 05:04:30;;;;;;;9.43;4.70;;;18.00;99.90;;;18.25;100.00;100431.38;5186490;28;20037;-50
2023/10/13 05:47:01;;;;;;;7.28;4.35;;;18.10;99.90;;;18.31;100.00;100412.88;5201175;28;20057;-51
2023/10/13 05:49:50;;;;;;;8.63;4.40;;;18.10;99.90;;;18.32;100.00;100407.63;5185004;28;20049;-51
2023/10/13 06:29:19;;;;;;;6.43;3.78;;;18.30;99.90;;;18.66;100.00;100420.69;5198674;28;20140;-52
2023/10/13 06:31:52;;;;;;;5.45;3.42;;;18.40;99.90;;;18.69;100.00;100411.00;5200799;28;20654;-51
2023/10/13 06:34:37;;;;;;;7.13;3.92;;;18.40;99.90;;;18.73;100.00;100416.31;5197477;28;20054;-51
2023/10/13 06:37:22;;;;;;;8.05;4.30;;;18.40;99.90;;;18.77;100.00;100407.47;5199825;28;20045;-52
2023/10/13 06:39:56;;;;;;;8.10;3.65;;;18.50;99.90;;;18.79;100.00;100411.00;5186726;28;20128;-51
2023/10/13 06:42:28;;;;;;;10.05;3.80;;;18.50;99.90;;;18.84;100.00;100406.53;5197792;28;20057;-52
2023/10/13 06:45:08;;;;;;;6.22;4.07;;;18.50;99.90;;;18.87;100.00;100411.81;5200571;28;20063;-52
2023/10/13 06:47:42;;;;;;;6.35;3.42;;;18.50;99.90;;;18.90;100.00;100410.03;5199020;28;20776;-52
2023/10/13 06:50:19;;;;;;;7.20;3.40;;;18.60;99.90;;;18.94;100.00;100410.91;5194522;28;20057;-52
2023/10/13 06:52:54;;;;;;;7.40;3.30;;;18.60;99.90;;;18.99;100.00;100403.84;5193392;28;20411;-51
2023/10/13 06:55:27;;;;;;;5.07;3.33;;;18.60;99.90;;;19.03;100.00;100405.56;5197161;28;20041;-51
2023/10/13 06:58:00;;;;;;;8.38;3.50;;;18.70;99.90;;;19.03;100.00;100392.34;5200469;28;20054;-52
2023/10/13 07:00:34;;;;;;;6.38;4.00;;;18.70;99.90;;;19.05;100.00;100393.25;5190317;28;20050;-52
2023/10/13 07:03:06;;;;;;;6.82;3.10;;;18.80;99.90;;;19.07;100.00;100383.53;5195563;28;20049;-51
2023/10/13 07:05:41;;;;;;;8.05;3.15;;;18.80;99.90;;;19.09;100.00;100380.88;5198511;28;20077;-52
2023/10/13 07:08:19;;;;;;;8.63;3.45;;;18.80;99.90;;;19.13;100.00;100379.97;5195877;28;20097;-51
2023/10/13 07:11:01;;;;;;;5.60;3.05;;;18.80;99.90;;;19.15;100.00;100383.47;5194898;28;20053;-51
2023/10/13 07:13:39;;;;;;;9.23;4.45;;;18.80;99.90;;;19.16;100.00;100367.59;5201861;28;20064;-51
2023/10/13 07:16:12;;;;;;;6.57;3.33;;;18.80;99.90;;;19.19;100.00;100375.53;5198796;28;20060;-51
2023/10/13 07:18:52;;;;;;;6.80;3.50;;;18.90;99.90;;;19.20;100.00;100374.63;5183751;28;20149;-52
2023/10/13 07:21:31;;;;;;;7.78;3.30;;;18.90;99.90;;;19.22;100.00;100375.50;5199385;28;20135;-50
2023/10/13 07:24:11;;;;;;;7.18;3.80;;;18.90;99.90;;;19.25;100.00;100370.19;5200177;28;20505;-52
2023/10/13 07:26:45;;;;;;;7.07;3.40;;;18.90;99.90;;;19.30;100.00;100372.81;5195458;28;20077;-52
2023/10/13 07:29:17;;;;;;;;;;;19.00;99.90;;;19.32;100.00;100370.16;5209936;28;20394;-51
2023/10/13 07:31:50;;;;;;;7.30;3.40;;;19.00;99.90;;;19.36;100.00;100366.59;5209781;28;19929;-52
2023/10/13 07:34:26;;;;;;;7.03;3.28;;;19.00;99.90;;;19.41;100.00;100364.78;5204347;28;20072;-51
2023/10/13 07:37:00;;;;;;;8.88;3.25;;;19.10;99.90;;;19.44;100.00;100356.84;5196796;28;20059;-51
2023/10/13 07:39:34;;;;;;;;;;;19.10;99.90;;;19.45;100.00;100350.66;5193226;28;20076;-51
2023/10/13 07:42:14;;;;;;;10.95;3.72;;;19.10;99.90;;;19.49;100.00;100352.38;5189647;28;20007;-51
2023/10/13 07:44:47;;;;;;;7.75;3.08;;;19.10;99.90;;;19.53;100.00;100359.41;5211656;28;20056;-52
2023/10/13 07:47:20;;;;;;;8.45;3.63;;;19.20;99.90;;;19.59;100.00;100356.75;5194683;28;20532;-51
2023/10/13 07:49:52;;;;;;;8.80;3.25;;;19.20;99.90;;;19.62;100.00;100353.19;5197662;28;20053;-52
2023/10/13 07:52:35;;;;;;;5.70;3.10;;;19.30;99.90;;;19.65;100.00;100348.75;5199452;28;20139;-51
2023/10/13 07:55:20;;;;;;;6.28;3.20;;;19.30;99.90;;;19.67;100.00;100348.72;5206726;28;20511;-51
2023/10/13 07:57:55;;;;;;;6.00;3.35;;;19.30;99.90;;;19.70;100.00;100344.31;5182641;28;20077;-51
2023/10/13 08:00:46;;;;;;;7.15;3.40;;;19.30;99.90;;;19.73;100.00;100341.63;5205409;28;20045;-51
2023/10/13 08:03:31;;;;;;;8.00;3.30;;;19.40;99.90;;;19.76;100.00;100341.59;5200267;28;20050;-51
2023/10/13 08:06:19;;;;;;;7.18;3.55;;;19.40;99.90;;;19.81;100.00;100335.38;5195276;28;20045;-50
2023/10/13 08:08:54;;;;;;;;;;;19.40;99.90;;;19.82;100.00;100330.06;5199718;28;20053;-51
2023/10/13 08:11:30;;;;;;;8.02;3.28;;;19.50;99.90;;;19.87;100.00;100335.31;5184302;28;20405;-50
2023/10/13 08:14:12;;;;;;;9.60;3.55;;;19.50;99.90;;;19.89;100.00;100334.41;5184170;28;20064;-50
2023/10/13 08:16:52;;;;;;;8.07;3.40;;;19.50;99.90;;;19.91;100.00;100329.97;5199218;28;20065;-53
2023/10/13 08:19:27;;;;;;;7.82;3.50;;;19.50;99.90;;;19.96;100.00;100333.47;5187140;28;20065;-51
2023/10/13 08:22:23;;;;;;;7.00;2.72;;;19.60;99.90;;;19.98;100.00;100333.44;5188328;28;20057;-51
2023/10/13 08:25:14;;;;;;;5.78;3.13;;;19.60;99.90;;;20.02;100.00;100317.53;5197503;28;20052;-52
2023/10/13 08:27:49;;;;;;;7.95;2.70;;;19.60;99.90;;;20.08;100.00;100329.78;5203018;28;20076;-52
2023/10/13 08:30:29;;;;;;;5.22;2.50;;;19.70;99.90;;;20.11;100.00;100332.41;5216661;28;20057;-51
2023/10/13 08:33:16;;;;;;;9.15;3.15;;;19.70;99.90;;;20.14;100.00;100316.47;5200530;28;20139;-50
2023/10/13 08:38:50;;;;;;;4.32;2.83;;;19.80;99.90;;;20.23;100.00;100313.75;5194237;28;20060;-51
2023/10/13 08:41:31;;;;;;;6.70;3.17;;;19.80;99.90;;;20.27;100.00;100311.91;5196815;28;20049;-49
2023/10/13 08:44:09;;;;;;;5.72;2.95;;;19.90;99.90;;;20.29;100.00;100321.59;5197296;28;20077;-52
2023/10/13 08:47:04;;;;;;;7.22;3.00;;;19.90;99.90;;;20.30;100.00;100318.06;5190414;28;20107;-50
2023/10/13 08:49:40;;;;;;;7.70;3.10;;;20.00;99.90;;;20.33;100.00;100318.00;5212948;28;20049;-51
2023/10/13 08:55:37;;;;;;;6.97;3.03;;;20.00;99.90;;;20.37;100.00;100320.63;5202889;28;20046;-51
2023/10/13 08:58:13;;;;;;;7.38;2.80;;;20.00;99.90;;;20.40;100.00;100318.81;5207608;28;20422;-52
2023/10/13 09:01:11;;;;;;;7.55;3.42;;;20.00;99.90;;;20.42;100.00;100305.56;5200043;28;20041;-51
2023/10/13 09:03:43;;;;;;;6.75;3.25;;;20.10;99.90;;;20.46;100.00;100315.25;5215698;28;20055;-50
2023/10/13 09:06:19;;;;;;;7.63;3.25;;;20.10;99.90;;;20.48;100.00;100311.69;5202495;28;20188;-51
2023/10/13 09:09:04;;;;;;;5.28;2.75;;;20.10;99.90;;;20.55;100.00;100312.50;5195465;28;20088;-51
2023/10/13 09:11:53;;;;;;;4.55;2.80;;;20.20;99.90;;;20.64;100.00;100322.94;5192313;28;20052;-52
2023/10/13 09:14:37;;;;;;;6.45;2.90;;;20.20;99.90;;;20.74;100.00;100313.09;5199986;28;20054;-53
2023/10/13 09:17:11;;;;;;;5.85;2.83;;;20.30;99.90;;;20.79;100.00;100312.13;5197727;28;20583;-51
2023/10/13 09:19:55;;;;;;;6.40;2.92;;;20.40;99.90;;;20.89;100.00;100317.28;5198752;28;20046;-53
2023/10/13 09:22:35;;;;;;;4.85;2.78;;;20.50;99.90;;;20.93;100.00;100317.22;5197543;28;20050;-54
2023/10/13 09:25:13;;;;;;;7.90;3.45;;;20.50;99.90;;;20.96;100.00;100303.06;5202551;28;20077;-53
2023/10/13 09:27:51;;;;;;;5.43;3.08;;;20.60;99.90;;;20.99;100.00;100303.88;5201882;28;20057;-52
2023/10/13 09:30:28;;;;;;;6.65;3.08;;;20.60;99.90;;;21.02;100.00;100297.66;5199164;28;20508;-51
2023/10/13 09:33:01;;;;;;;6.07;3.10;;;20.60;99.90;;;21.03;100.00;100305.59;5202468;28;20518;-53
2023/10/13 09:35:36;;;;;;;6.90;3.50;;;20.60;99.90;;;21.05;100.00;100297.59;5195557;28;20140;-52
2023/10/13 09:38:10;;;;;;;6.47;3.10;;;20.60;99.90;;;21.07;100.00;100298.47;5202512;28;20073;-52
2023/10/13 09:40:49;;;;;;;5.32;2.63;;;20.60;99.90;;;21.10;100.00;100298.41;5204392;28;20386;-54
2023/10/13 09:43:22;;;;;;;5.30;3.10;;;20.70;99.90;;;21.12;100.00;100296.59;5194986;28;20054;-52
2023/10/13 09:46:06;;;;;;;7.30;3.25;;;20.70;99.90;;;21.13;100.00;100296.59;5202096;28;20050;-51
2023/10/13 09:48:40;;;;;;;5.80;2.80;;;20.70;99.90;;;21.22;100.00;100292.91;5202034;28;20107;-51
2023/10/13 09:51:19;;;;;;;6.68;3.15;;;20.70;99.90;;;21.27;100.00;100288.41;5195289;28;20476;-52
2023/10/13 09:54:03;;;;;;;7.85;3.20;;;20.80;99.90;;;21.31;100.00;100279.53;5195803;28;20134;-52
2023/10/13 09:56:51;;;;;;;6.85;3.38;;;20.90;99.90;;;21.36;100.00;100267.06;5192747;28;20045;-53
2023/10/13 09:59:34;;;;;;;8.70;3.72;;;20.90;99.90;;;21.54;100.00;100278.25;5205732;28;20041;-53
2023/10/13 10:02:18;;;;;;;8.57;3.10;;;21.00;99.90;;;21.66;100.00;100270.06;5204116;28;20049;-51
2023/10/13 10:04:52;;;;;;;8.75;3.67;;;21.10;99.90;;;21.75;100.00;100269.88;5190426;28;20642;-53
2023/10/13 10:07:28;;;;;;;12.13;4.05;;;21.20;99.90;;;21.86;100.00;100254.66;5185855;28;20193;-50
2023/10/13 10:10:03;;;;;;;6.13;3.03;;;21.30;99.90;;;22.01;100.00;100255.22;5209898;28;20042;-51
2023/10/13 10:12:46;;;;;;;5.70;3.38;;;21.50;99.90;;;22.15;100.00;100253.19;5196448;28;20053;-51
2023/10/13 10:15:33;;;;;;;6.75;3.30;;;21.60;99.90;;;22.23;100.00;100259.19;5211186;28;20049;-52
2023/10/13 10:18:19;;;;;;;;;;;21.70;99.90;;;22.24;100.00;100250.34;5196869;28;20053;-51
2023/10/13 10:20:54;;;;;;;5.80;2.83;;;21.70;99.90;;;22.29;100.00;100259.06;5201811;28;19925;-52
2023/10/13 10:23:35;;;;;;;6.97;3.17;;;21.80;99.90;;;22.28;100.00;100256.47;5199768;28;20052;-50
2023/10/13 10:26:11;;;;;;;5.68;3.13;;;21.70;99.90;;;22.29;100.00;100259.06;5207625;28;20050;-50
2023/10/13 10:28:44;;;;;;;6.22;3.17;;;21.70;99.90;;;22.35;100.00;100261.59;5199176;28;20051;-52
2023/10/13 10:31:19;;;;;;;7.40;3.55;;;21.80;99.90;;;22.36;100.00;100268.66;5200171;28;20046;-50
2023/10/13 10:33:53;;;;;;;7.43;3.67;;;21.80;99.90;;;22.35;100.00;100263.38;5195537;28;20132;-51
2023/10/13 10:36:30;;;;;;;8.40;4.03;;;21.80;99.90;;;22.32;100.00;100258.16;5196857;28;20057;-51
2023/10/13 10:39:05;;;;;;;6.82;3.65;;;21.80;99.90;;;22.29;100.00;100256.41;5202381;28;20351;-51
2023/10/13 10:41:44;;;;;;;6.60;3.83;;;21.70;99.90;;;22.30;100.00;100252.88;5213414;28;20060;-51
2023/10/13 10:44:21;;;;;;;7.68;3.75;;;21.80;99.90;;;22.39;100.00;100251.78;5203600;28;20111;-51
2023/10/13 10:46:57;;;;;;;6.43;3.63;;;21.80;99.90;;;22.43;100.00;100251.72;5195306;28;20049;-51
2023/10/13 10:49:38;;;;;;;5.53;3.10;;;21.90;99.90;;;22.48;100.00;100252.44;5199501;28;20045;-51
2023/10/13 10:52:18;;;;;;;8.73;4.00;;;21.90;99.90;;;22.53;100.00;100249.69;5213988;28;20412;-51
2023/10/13 10:55:00;;;;;;;7.70;4.30;;;22.00;99.90;;;22.59;100.00;100235.41;5200027;28;20056;-51
2023/10/13 10:57:37;;;;;;;8.73;3.80;;;22.00;99.90;;;22.65;100.00;100227.28;5206594;28;20049;-52
2023/10/13 11:00:20;;;;;;;8.25;4.18;;;22.00;99.90;;;22.69;100.00;100213.00;5211581;28;20069;-52
2023/10/13 11:02:56;;;;;;;7.28;3.72;;;22.10;99.90;;;22.72;100.00;100212.94;5200670;28;20579;-51
2023/10/13 11:05:32;;;;;;;7.15;3.70;;;22.10;99.90;;;22.74;100.00;100213.78;5199698;28;20380;-52
2023/10/13 11:08:12;;;;;;;7.63;4.10;;;22.20;99.90;;;22.80;100.00;100203.00;5202518;28;20128;-50
2023/10/13 11:10:47;;;;;;;7.28;4.13;;;22.20;99.90;;;22.85;100.00;100206.44;5200843;28;20478;-51
2023/10/13 11:13:22;;;;;;;7.55;3.47;;;22.30;99.90;;;22.92;100.00;100200.09;5209363;28;20408;-52
2023/10/13 11:15:57;;;;;;;8.30;4.05;;;22.30;99.90;;;22.99;100.00;100191.03;5215398;28;20492;-52
2023/10/13 11:18:40;;;;;;;7.82;4.03;;;22.40;99.90;;;23.02;100.00;100188.31;5211094;28;20052;-51
2023/10/13 11:21:18;;;;;;;5.90;3.42;;;22.40;99.90;;;23.05;100.00;100191.78;5209853;28;20067;-53
2023/10/13 11:23:57;;;;;;;6.03;3.40;;;22.50;99.90;;;23.09;100.00;100196.13;5188561;28;20049;-51
2023/10/13 11:26:35;;;;;;;7.00;3.55;;;22.50;99.90;;;23.14;100.00;100184.44;5204391;28;20419;-50
2023/10/13 11:29:10;;;;;;;6.82;3.55;;;22.50;99.90;;;23.18;100.00;100182.59;5206860;28;20060;-52
2023/10/13 11:31:42;;;;;;;9.68;3.90;;;22.60;99.90;;;23.19;100.00;100176.34;5199264;28;20054;-50
2023/10/13 11:34:17;;;;;;;9.13;3.90;;;22.60;99.90;;;23.17;100.00;100168.44;5189091;28;20045;-55
2023/10/13 11:36:51;;;;;;;10.07;4.38;;;22.60;99.90;;;23.20;100.00;100167.47;5198424;28;20046;-47
2023/10/13 11:39:24;;;;;;;7.80;4.32;;;22.60;99.90;;;23.25;100.00;100165.56;5197543;28;20052;-51
2023/10/13 11:41:57;;;;;;;7.60;3.30;;;22.60;99.90;;;23.22;100.00;100157.69;5192954;28;20499;-49
2023/10/13 11:44:43;;;;;;;8.35;3.15;;;22.60;99.90;;;23.20;100.00;100163.00;5198543;28;20412;-50
2023/10/13 11:50:05;;;;;;;5.90;3.50;;;22.60;99.90;;;23.20;100.00;100160.34;5193765;28;20196;-48
2023/10/13 11:52:40;;;;;;;8.65;3.80;;;22.60;99.90;;;23.19;100.00;100155.94;5206210;28;20057;-50
2023/10/13 11:55:13;;;;;;;6.05;3.22;;;22.70;99.90;;;23.18;100.00;100161.31;5220573;28;20053;-49
2023/10/13 11:57:45;;;;;;;7.15;3.22;;;22.60;99.90;;;23.14;100.00;100157.00;5196945;28;20057;-50
2023/10/13 12:00:50;;;;;;;7.35;3.63;;;22.60;99.90;;;23.11;100.00;100152.63;5197906;28;20038;-51
2023/10/13 12:09:14;;;;;;;6.88;3.00;;;22.50;99.90;;;23.09;100.00;100148.28;5187756;28;20464;-51
2023/10/13 12:11:50;;;;;;;5.53;3.13;;;22.60;99.90;;;23.11;100.00;100149.09;5198179;28;20053;-50
2023/10/13 12:14:27;;;;;;;5.97;3.00;;;22.60;99.90;;;23.20;100.00;100154.16;5200059;28;20049;-52
2023/10/13 12:17:04;;;;;;;5.85;3.17;;;22.60;99.90;;;23.35;100.00;100148.44;5193789;28;20052;-52
2023/10/13 12:19:38;;;;;;;6.60;3.17;;;22.80;99.90;;;23.48;99.99;100151.63;5194217;28;20045;-50
2023/10/13 12:22:16;;;;;;;8.18;3.13;;;22.80;99.90;;;23.51;99.58;100141.75;5200057;28;20344;-51
2023/10/13 12:24:53;;;;;;;6.18;2.85;;;22.90;99.90;;;23.49;99.05;100132.09;5215891;28;20049;-50
2023/10/13 12:27:35;;;;;;;7.20;3.30;;;22.90;99.90;;;23.45;98.97;100125.97;5199718;28;20053;-49
2023/10/13 12:30:13;;;;;;;7.68;3.33;;;22.90;99.90;;;23.41;98.95;100121.69;5197573;28;20065;-51
2023/10/13 12:32:54;;;;;;;10.65;3.45;;;22.90;99.90;;;23.39;98.63;100128.81;5197208;28;20080;-52
2023/10/13 12:35:30;;;;;;;7.40;3.75;;;22.80;99.90;;;23.41;97.88;100120.78;5188236;28;20154;-50
2023/10/13 12:38:05;;;;;;;7.22;3.17;;;22.80;99.90;;;23.42;97.51;100107.47;5193573;28;20056;-50
2023/10/13 12:49:28;;;;;;;8.02;4.25;;;22.80;99.90;;;23.31;96.68;100109.56;5189255;28;20069;-51
2023/10/13 12:52:00;;;;;;;8.02;3.05;;;22.80;99.90;;;23.32;96.18;100099.78;5198224;28;20052;-50